Time;durP1;ratioP1;P1;durP2;ratioP2;P2;SDS_P1;SDS_P2;PMS_P1;PMS_P2;Temp;Humidity;BMP_temperature;BMP_pressure;BME280_temperature;BME280_humidity;BME280_pressure;Samples;Min_cycle;Max_cycle;Signal;HPM_P1;HPM_P2
2024/03/28 00:02:32;;;;;;;7.63;3.13;;;;;;;10.57;100.00;95006.47;6298560;28;20290;-58
2024/03/28 00:05:33;;;;;;;7.47;3.30;;;;;;;10.53;100.00;95014.28;6301163;28;20196;-59
2024/03/28 00:08:34;;;;;;;8.93;2.90;;;;;;;10.54;100.00;95013.22;6295504;28;20182;-57
2024/03/28 00:11:35;;;;;;;8.87;3.73;;;;;;;10.58;100.00;95013.38;6295125;28;20202;-59
2024/03/28 00:14:36;;;;;;;8.27;2.63;;;;;;;10.69;100.00;95001.38;6290738;28;20563;-59
2024/03/28 00:17:39;;;;;;;8.07;3.00;;;;;;;10.66;100.00;94987.88;6295030;28;20315;-59
2024/03/28 00:20:41;;;;;;;8.60;2.57;;;;;;;10.53;100.00;94963.72;6295523;28;20190;-59
2024/03/28 00:23:42;;;;;;;8.40;2.70;;;;;;;10.59;100.00;94977.69;6297705;28;20198;-59
2024/03/28 00:26:43;;;;;;;8.90;2.63;;;;;;;10.51;100.00;94968.56;6291146;28;20285;-57
2024/03/28 00:29:44;;;;;;;7.90;3.00;;;;;;;10.45;100.00;94971.69;6296465;28;20214;-59
2024/03/28 00:32:49;;;;;;;8.70;3.07;;;;;;;10.41;100.00;94950.22;6306977;28;20231;-59
2024/03/28 00:35:50;;;;;;;7.30;2.20;;;;;;;10.39;100.00;94944.41;6283914;28;20197;-59
2024/03/28 00:38:52;;;;;;;9.30;2.90;;;;;;;10.33;100.00;94941.09;6298184;28;20221;-59
2024/03/28 00:41:53;;;;;;;9.50;2.60;;;;;;;10.36;100.00;94936.28;6301051;28;20212;-59
2024/03/28 00:44:54;;;;;;;12.33;2.70;;;;;;;10.28;100.00;94945.78;6303850;28;20181;-57
2024/03/28 00:47:55;;;;;;;7.63;2.03;;;;;;;10.24;100.00;94945.59;6303582;28;20737;-60
2024/03/28 00:50:58;;;;;;;9.73;3.60;;;;;;;10.12;100.00;94940.03;6299167;28;20200;-59
2024/03/28 00:53:59;;;;;;;6.73;2.50;;;;;;;10.04;100.00;94967.38;6298587;28;20198;-60
2024/03/28 00:57:00;;;;;;;7.03;2.20;;;;;;;9.96;100.00;94982.19;6309622;28;20197;-59
2024/03/28 01:00:02;;;;;;;4.13;2.00;;;;;;;9.91;100.00;94998.28;6302770;28;20202;-59
2024/03/28 01:03:03;;;;;;;7.40;2.00;;;;;;;10.04;100.00;94991.31;6296571;28;20198;-58
2024/03/28 01:06:04;;;;;;;3.90;1.80;;;;;;;9.96;100.00;94992.06;6294017;28;20283;-57
2024/03/28 01:09:05;;;;;;;7.30;2.27;;;;;;;9.82;100.00;94982.28;6294337;28;20189;-60
2024/03/28 01:12:06;;;;;;;7.00;1.90;;;;;;;9.97;100.00;95004.25;6299527;28;20201;-58
2024/03/28 01:15:08;;;;;;;6.63;2.43;;;;;;;10.00;100.00;94996.47;6293019;28;20180;-59
2024/03/28 01:18:09;;;;;;;5.97;2.40;;;;;;;9.97;100.00;94999.72;6278831;28;20232;-59
2024/03/28 01:21:10;;;;;;;6.20;1.87;;;;;;;9.91;100.00;94978.88;6299468;28;20193;-59
2024/03/28 01:24:11;;;;;;;7.10;2.33;;;;;;;9.89;100.00;94979.16;6299569;28;20196;-59
2024/03/28 01:27:13;;;;;;;6.77;2.00;;;;;;;9.85;100.00;94962.25;6297342;28;20545;-58
2024/03/28 01:30:14;;;;;;;9.07;2.23;;;;;;;9.82;100.00;94944.25;6293506;28;20242;-60
2024/03/28 01:33:15;;;;;;;6.17;2.43;;;;;;;9.77;100.00;94939.06;6290061;28;20623;-58
2024/03/28 01:36:16;;;;;;;4.67;1.93;;;;;;;9.74;100.00;94951.09;6301298;28;20193;-60
2024/03/28 01:39:17;;;;;;;7.43;2.43;;;;;;;9.71;100.00;94945.59;6291860;28;20251;-59
2024/03/28 01:42:19;;;;;;;7.47;2.10;;;;;;;9.70;100.00;94947.47;6299415;28;20276;-58
2024/03/28 01:45:20;;;;;;;8.77;2.60;;;;;;;9.69;100.00;94951.22;6301852;28;20599;-59
2024/03/28 01:48:21;;;;;;;4.87;2.00;;;;;;;9.67;100.00;94952.63;6299277;28;20193;-59
2024/03/28 01:51:23;;;;;;;7.57;2.40;;;;;;;9.56;100.00;94968.81;6293427;28;20211;-60
2024/03/28 01:54:25;;;;;;;7.63;2.50;;;;;;;9.54;100.00;94957.66;6296529;28;20189;-58
2024/03/28 01:57:28;;;;;;;10.03;2.80;;;;;;;9.57;100.00;94988.97;6295558;28;20233;-59
2024/03/28 02:00:29;;;;;;;8.47;2.30;;;;;;;9.66;100.00;94999.69;6293607;28;20220;-60
2024/03/28 02:03:33;;;;;;;6.20;2.40;;;;;;;9.64;100.00;95009.81;6298047;28;20230;-59
2024/03/28 02:06:37;;;;;;;9.57;2.87;;;;;;;9.53;100.00;95011.13;6302929;28;20193;-58
2024/03/28 02:09:38;;;;;;;5.60;2.33;;;;;;;9.66;100.00;95036.88;6296187;28;20726;-58
2024/03/28 02:12:40;;;;;;;4.97;4.37;;;;;;;9.77;100.00;95030.25;6303010;28;20203;-58
2024/03/28 02:15:42;;;;;;;5.17;3.10;;;;;;;9.71;100.00;95050.06;6312667;28;20191;-58
2024/03/28 02:18:43;;;;;;;3.37;3.00;;;;;;;9.56;100.00;95064.47;6298370;28;20321;-57
2024/03/28 02:21:45;;;;;;;3.30;2.80;;;;;;;9.64;100.00;95064.84;6299848;28;20245;-58
2024/03/28 02:24:48;;;;;;;2.47;2.27;;;;;;;9.40;100.00;95078.38;6299555;28;20189;-59
2024/03/28 02:27:49;;;;;;;1.70;1.60;;;;;;;9.20;100.00;95074.25;6302745;28;20194;-57
2024/03/28 02:30:50;;;;;;;1.17;1.10;;;;;;;9.15;100.00;95096.41;6307419;28;20193;-59
2024/03/28 02:33:51;;;;;;;1.30;1.20;;;;;;;9.09;98.78;95118.06;6301464;28;20199;-59
2024/03/28 02:36:52;;;;;;;2.27;1.00;;;;;;;8.74;100.00;95110.44;6292921;28;20245;-58
2024/03/28 02:39:55;;;;;;;1.10;1.10;;;;;;;8.74;100.00;95129.03;6294581;28;20220;-58
2024/03/28 02:42:56;;;;;;;1.17;1.00;;;;;;;8.67;100.00;95133.13;6301279;28;20194;-57
2024/03/28 02:45:57;;;;;;;0.70;0.70;;;;;;;8.74;98.44;95149.47;6302253;28;20190;-58
2024/03/28 02:48:58;;;;;;;0.40;0.40;;;;;;;8.71;95.81;95152.69;6295994;28;20270;-58
2024/03/28 02:51:59;;;;;;;0.10;0.10;;;;;;;8.47;88.40;95179.38;6300073;28;20278;-59
2024/03/28 02:55:00;;;;;;;0.10;0.10;;;;;;;8.32;91.04;95183.00;6291545;28;20225;-56
2024/03/28 02:58:01;;;;;;;0.23;0.10;;;;;;;8.08;100.00;95203.50;6292003;28;20198;-58
2024/03/28 03:01:03;;;;;;;0.10;0.10;;;;;;;7.89;94.57;95193.72;6293908;28;20244;-56
2024/03/28 03:04:04;;;;;;;0.40;0.40;;;;;;;7.87;94.21;95219.69;6293123;28;20277;-57
2024/03/28 03:07:05;;;;;;;0.40;0.20;;;;;;;7.82;94.72;95219.75;6275308;28;20198;-59
2024/03/28 03:10:07;;;;;;;0.87;0.20;;;;;;;7.69;95.83;95223.91;6292521;28;20194;-57
2024/03/28 03:13:08;;;;;;;1.30;0.10;;;;;;;7.76;94.87;95216.38;6291865;28;20187;-57
2024/03/28 03:16:10;;;;;;;0.10;0.10;;;;;;;7.54;100.00;95223.28;6293412;28;20282;-59
2024/03/28 03:19:11;;;;;;;0.13;0.13;;;;;;;7.44;100.00;95213.63;6282777;28;20239;-58
2024/03/28 03:22:15;;;;;;;1.03;0.20;;;;;;;7.33;100.00;95207.63;6280591;28;20206;-57
2024/03/28 03:25:24;;;;;;;1.40;0.20;;;;;;;7.22;100.00;95229.97;6293004;28;20189;-57
2024/03/28 03:35:06;;;;;;;0.10;0.10;;;;;;;6.96;100.00;95229.44;6288578;28;20187;-59
2024/03/28 03:38:07;;;;;;;0.50;0.20;;;;;;;6.83;100.00;95244.09;6292673;28;20201;-58
2024/03/28 03:41:08;;;;;;;0.10;0.10;;;;;;;6.76;100.00;95233.06;6291864;28;20197;-57
2024/03/28 03:44:09;;;;;;;0.10;0.10;;;;;;;6.66;100.00;95225.22;6291250;28;20193;-58
2024/03/28 03:47:11;;;;;;;1.10;0.20;;;;;;;6.55;100.00;95221.03;6303806;28;20558;-58
2024/03/28 03:50:12;;;;;;;0.20;0.20;;;;;;;6.57;100.00;95232.16;6295185;28;20603;-56
2024/03/28 03:53:13;;;;;;;0.57;0.20;;;;;;;6.56;100.00;95234.00;6292064;28;20227;-58
2024/03/28 03:56:14;;;;;;;0.10;0.10;;;;;;;6.53;100.00;95234.56;6298184;28;20197;-58
2024/03/28 03:59:15;;;;;;;0.37;0.37;;;;;;;6.58;100.00;95249.59;6294072;28;20214;-58
2024/03/28 04:02:16;;;;;;;0.10;0.10;;;;;;;6.62;100.00;95250.63;6299468;28;20190;-58
2024/03/28 04:05:18;;;;;;;0.10;0.10;;;;;;;6.64;100.00;95251.13;6299130;28;20205;-59
2024/03/28 04:08:20;;;;;;;0.10;0.10;;;;;;;6.59;100.00;95249.31;6275880;28;20185;-56
2024/03/28 04:11:21;;;;;;;0.10;0.10;;;;;;;6.50;100.00;95239.59;6286906;28;20189;-57
2024/03/28 04:14:22;;;;;;;0.10;0.10;;;;;;;6.51;100.00;95241.97;6306510;28;20653;-57
2024/03/28 04:17:23;;;;;;;0.20;0.10;;;;;;;6.58;100.00;95262.81;6290174;28;20208;-57
2024/03/28 04:20:25;;;;;;;0.10;0.10;;;;;;;6.65;100.00;95264.09;6290464;28;20236;-58
2024/03/28 04:23:27;;;;;;;0.03;0.03;;;;;;;6.50;100.00;95256.25;6290155;28;20193;-59
2024/03/28 04:26:29;;;;;;;1.90;0.10;;;;;;;6.65;100.00;95279.16;6298348;28;20193;-58
2024/03/28 04:29:32;;;;;;;0.00;0.00;;;;;;;6.58;100.00;95303.28;6290352;28;20190;-58
2024/03/28 04:32:33;;;;;;;0.10;0.10;;;;;;;6.64;100.00;95309.31;6291272;28;20677;-58
2024/03/28 04:35:34;;;;;;;0.10;0.10;;;;;;;6.79;99.29;95288.06;6291163;28;20700;-59
2024/03/28 04:38:36;;;;;;;1.57;0.10;;;;;;;6.73;99.57;95294.44;6309799;28;20265;-57
2024/03/28 04:41:37;;;;;;;0.10;0.00;;;;;;;6.66;100.00;95289.47;6295233;28;20193;-58
2024/03/28 04:44:38;;;;;;;0.03;0.03;;;;;;;6.69;100.00;95290.78;6299704;28;20202;-58
2024/03/28 04:47:39;;;;;;;0.10;0.10;;;;;;;6.65;100.00;95298.50;6292027;28;20217;-59
2024/03/28 04:50:40;;;;;;;0.03;0.03;;;;;;;6.56;100.00;95291.41;6299306;28;20185;-57
2024/03/28 04:53:41;;;;;;;0.10;0.10;;;;;;;6.53;100.00;95297.25;6299855;28;20198;-58
2024/03/28 04:56:42;;;;;;;0.10;0.10;;;;;;;6.37;100.00;95299.97;6292836;28;20187;-58
2024/03/28 04:59:43;;;;;;;0.10;0.10;;;;;;;6.32;100.00;95313.22;6295094;28;20805;-58
2024/03/28 05:02:44;;;;;;;0.10;0.10;;;;;;;6.32;100.00;95344.97;6293258;28;20558;-56
2024/03/28 05:05:47;;;;;;;0.00;0.00;;;;;;;6.39;100.00;95352.59;6289775;28;20196;-59
2024/03/28 05:08:48;;;;;;;0.10;0.10;;;;;;;6.78;98.61;95354.47;6289778;28;20549;-58
2024/03/28 05:11:49;;;;;;;0.10;0.10;;;;;;;6.97;98.11;95350.13;6294639;28;20197;-57
2024/03/28 05:14:52;;;;;;;0.20;0.13;;;;;;;6.91;97.41;95354.66;6295394;28;20203;-56
2024/03/28 05:17:53;;;;;;;0.00;0.00;;;;;;;6.81;99.73;95336.22;6294182;28;20245;-57
2024/03/28 05:20:54;;;;;;;0.00;0.00;;;;;;;6.69;100.00;95322.53;6304579;28;20204;-56
2024/03/28 05:23:55;;;;;;;0.20;0.10;;;;;;;6.72;97.44;95324.63;6297336;28;20182;-57
2024/03/28 05:26:57;;;;;;;0.03;0.03;;;;;;;6.69;99.43;95333.88;6294080;28;20565;-57
2024/03/28 05:29:58;;;;;;;0.33;0.10;;;;;;;6.70;96.32;95340.78;6293929;28;20197;-58
2024/03/28 05:33:00;;;;;;;0.10;0.10;;;;;;;6.63;97.00;95342.16;6293627;28;20704;-57
2024/03/28 05:36:01;;;;;;;0.10;0.10;;;;;;;6.86;95.23;95364.50;6291522;28;20648;-59
2024/03/28 05:39:05;;;;;;;0.10;0.10;;;;;;;6.84;96.54;95388.56;6276932;28;20300;-57
2024/03/28 05:42:06;;;;;;;0.13;0.13;;;;;;;6.87;100.00;95411.06;6293928;28;20657;-57
2024/03/28 05:45:09;;;;;;;0.10;0.10;;;;;;;6.75;100.00;95422.00;6293664;28;20653;-57
2024/03/28 05:48:10;;;;;;;0.10;0.10;;;;;;;6.78;100.00;95416.13;6293211;28;20224;-57
2024/03/28 05:51:11;;;;;;;0.10;0.10;;;;;;;6.93;100.00;95412.59;6283109;28;20210;-57
2024/03/28 05:54:13;;;;;;;0.20;0.10;;;;;;;6.78;97.46;95402.91;6303646;28;20196;-58
2024/03/28 05:57:14;;;;;;;0.10;0.10;;;;;;;6.88;100.00;95415.28;6300046;28;20202;-56
2024/03/28 06:00:15;;;;;;;0.10;0.10;;;;;;;6.90;100.00;95424.53;6295428;28;20205;-57
2024/03/28 06:03:16;;;;;;;0.00;0.00;;;;;;;6.97;100.00;95430.31;6293689;28;20205;-58
2024/03/28 06:06:18;;;;;;;0.10;0.10;;;;;;;7.03;100.00;95441.66;6294863;28;20186;-56
2024/03/28 06:09:19;;;;;;;0.27;0.10;;;;;;;7.07;100.00;95442.69;6293577;28;20191;-57
2024/03/28 06:12:20;;;;;;;0.20;0.20;;;;;;;7.06;100.00;95440.34;6298395;28;20208;-56
2024/03/28 06:15:21;;;;;;;0.10;0.10;;;;;;;7.12;100.00;95447.19;6295962;28;20199;-56
2024/03/28 06:18:24;;;;;;;0.20;0.10;;;;;;;7.26;100.00;95434.13;6296740;28;20222;-56
2024/03/28 06:21:25;;;;;;;0.17;0.17;;;;;;;7.22;98.25;95439.16;6293752;28;20198;-56
2024/03/28 06:24:26;;;;;;;0.10;0.10;;;;;;;7.21;100.00;95450.81;6303455;28;20918;-57
2024/03/28 06:27:27;;;;;;;1.50;0.20;;;;;;;7.19;100.00;95464.34;6300266;28;20535;-57
2024/03/28 06:30:30;;;;;;;0.03;0.03;;;;;;;7.30;100.00;95483.63;6299829;28;20210;-57
2024/03/28 06:33:32;;;;;;;0.20;0.20;;;;;;;7.31;100.00;95481.75;6277155;28;20210;-56
2024/03/28 06:36:33;;;;;;;0.10;0.10;;;;;;;7.38;100.00;95490.16;6292353;28;20185;-55
2024/03/28 06:39:34;;;;;;;0.20;0.20;;;;;;;7.39;100.00;95492.56;6290194;28;20208;-56
2024/03/28 06:42:35;;;;;;;0.20;0.20;;;;;;;7.41;100.00;95503.66;6300498;28;20476;-56
2024/03/28 06:45:36;;;;;;;0.60;0.30;;;;;;;7.39;100.00;95505.00;6295727;28;20205;-57
2024/03/28 06:48:37;;;;;;;0.10;0.10;;;;;;;7.38;100.00;95517.44;6292997;28;20198;-56
2024/03/28 06:51:38;;;;;;;0.10;0.10;;;;;;;7.36;100.00;95516.94;6294468;28;20195;-55
2024/03/28 06:54:39;;;;;;;0.10;0.10;;;;;;;7.37;100.00;95510.56;6297502;28;20204;-58
2024/03/28 06:57:40;;;;;;;0.17;0.10;;;;;;;7.33;100.00;95509.53;6295915;28;20348;-56
2024/03/28 07:00:42;;;;;;;0.10;0.10;;;;;;;7.39;100.00;95512.94;6296533;28;20216;-57
2024/03/28 07:03:43;;;;;;;0.20;0.20;;;;;;;7.36;100.00;95505.56;6302936;28;20247;-57
2024/03/28 07:06:44;;;;;;;0.10;0.10;;;;;;;7.41;100.00;95508.16;6292414;28;20203;-56
2024/03/28 07:09:45;;;;;;;0.20;0.17;;;;;;;7.46;100.00;95514.22;6299261;28;20185;-56
2024/03/28 07:12:46;;;;;;;0.17;0.17;;;;;;;7.51;100.00;95510.75;6299471;28;20195;-57
2024/03/28 07:15:47;;;;;;;0.20;0.20;;;;;;;7.60;100.00;95516.25;6300887;28;20194;-56
2024/03/28 07:18:49;;;;;;;0.20;0.20;;;;;;;7.68;100.00;95505.84;6298280;28;20281;-57
2024/03/28 07:21:50;;;;;;;0.20;0.20;;;;;;;7.78;100.00;95518.22;6299626;28;20850;-58
2024/03/28 07:24:51;;;;;;;0.20;0.20;;;;;;;7.88;100.00;95523.47;6296715;28;20199;-56
2024/03/28 07:27:52;;;;;;;0.20;0.20;;;;;;;7.87;100.00;95519.22;6308861;28;20195;-58
2024/03/28 07:30:53;;;;;;;0.30;0.30;;;;;;;8.17;100.00;95514.72;6290929;28;20412;-55
2024/03/28 07:33:54;;;;;;;0.90;0.30;;;;;;;8.33;100.00;95510.88;6302836;28;20601;-58
2024/03/28 07:36:55;;;;;;;0.30;0.30;;;;;;;8.33;100.00;95516.19;6292836;28;20782;-57
2024/03/28 07:39:56;;;;;;;0.30;0.30;;;;;;;8.48;100.00;95521.38;6289092;28;20228;-56
2024/03/28 07:42:57;;;;;;;0.53;0.13;;;;;;;8.61;100.00;95521.75;6290514;28;20189;-59
2024/03/28 07:46:03;;;;;;;1.33;0.20;;;;;;;9.14;100.00;95527.78;6297459;28;20631;-58
2024/03/28 07:49:06;;;;;;;0.20;0.10;;;;;;;9.33;100.00;95516.38;6292228;28;20273;-59
2024/03/28 07:52:07;;;;;;;0.30;0.20;;;;;;;9.73;100.00;95539.72;6274267;28;20675;-57
2024/03/28 07:55:08;;;;;;;0.30;0.10;;;;;;;9.83;98.97;95536.91;6292202;28;20726;-57
2024/03/28 07:58:09;;;;;;;0.67;0.10;;;;;;;10.33;82.59;95547.84;6306184;28;20193;-56
2024/03/28 08:01:11;;;;;;;0.60;0.37;;;;;;;10.57;92.22;95546.91;6294697;28;20197;-57
2024/03/28 08:04:13;;;;;;;1.20;0.40;;;;;;;10.59;87.34;95556.19;6291043;28;20202;-58
2024/03/28 08:07:14;;;;;;;0.30;0.30;;;;;;;10.69;83.35;95571.19;6291042;28;20236;-56
2024/03/28 08:10:15;;;;;;;0.60;0.40;;;;;;;10.77;80.96;95572.38;6303929;28;20562;-58
2024/03/28 08:13:16;;;;;;;1.53;0.30;;;;;;;10.65;80.22;95575.53;6294020;28;21108;-56
2024/03/28 08:16:17;;;;;;;0.30;0.30;;;;;;;10.84;83.36;95576.25;6292664;28;20196;-59
2024/03/28 08:19:18;;;;;;;1.47;0.40;;;;;;;11.02;84.59;95563.91;6290448;28;20248;-56
2024/03/28 08:22:21;;;;;;;0.20;0.20;;;;;;;11.29;80.70;95563.09;6294916;28;20204;-55
2024/03/28 08:25:22;;;;;;;1.10;0.40;;;;;;;11.55;77.77;95568.69;6294752;28;20187;-58
2024/03/28 08:28:24;;;;;;;0.47;0.30;;;;;;;11.93;76.99;95572.97;6293124;28;20570;-58
2024/03/28 08:31:25;;;;;;;1.03;0.60;;;;;;;11.97;76.19;95585.41;6290018;28;20205;-58
2024/03/28 08:34:26;;;;;;;0.73;0.43;;;;;;;11.93;73.14;95583.66;6291683;28;20206;-59
2024/03/28 08:37:27;;;;;;;0.40;0.37;;;;;;;12.16;76.28;95597.78;6292361;28;20185;-59
2024/03/28 08:40:28;;;;;;;0.37;0.37;;;;;;;12.25;74.42;95610.09;6290559;28;20205;-58
2024/03/28 08:43:29;;;;;;;0.43;0.30;;;;;;;12.36;70.19;95610.66;6291576;28;20185;-58
2024/03/28 08:46:30;;;;;;;0.30;0.30;;;;;;;12.35;73.43;95620.53;6280010;28;20218;-58
2024/03/28 08:49:32;;;;;;;0.57;0.40;;;;;;;12.49;72.44;95609.81;6300475;28;20538;-57
2024/03/28 08:52:34;;;;;;;0.30;0.30;;;;;;;12.55;73.46;95613.94;6294080;28;20200;-58
2024/03/28 08:55:36;;;;;;;0.93;0.40;;;;;;;12.79;74.32;95584.22;6296987;28;20555;-58
2024/03/28 08:58:38;;;;;;;0.77;0.30;;;;;;;13.12;72.10;95602.59;6277703;28;20588;-57
2024/03/28 09:01:39;;;;;;;0.83;0.43;;;;;;;13.01;68.94;95607.44;6277592;28;20213;-58
2024/03/28 09:04:40;;;;;;;0.50;0.40;;;;;;;13.28;67.46;95621.72;6301478;28;20281;-55
2024/03/28 09:07:42;;;;;;;0.63;0.30;;;;;;;13.51;65.28;95614.41;6302211;28;20768;-56
2024/03/28 09:10:44;;;;;;;0.30;0.30;;;;;;;13.37;60.56;95619.88;6294441;28;20218;-59
2024/03/28 09:13:46;;;;;;;0.50;0.50;;;;;;;13.12;62.89;95621.31;6296060;28;20549;-58
2024/03/28 09:16:48;;;;;;;0.60;0.40;;;;;;;13.35;68.16;95609.47;6299832;28;20198;-58
2024/03/28 09:19:52;;;;;;;1.50;0.60;;;;;;;13.20;64.92;95585.00;6292647;28;20222;-57
2024/03/28 09:22:55;;;;;;;1.90;0.50;;;;;;;13.55;64.93;95597.41;6294570;28;20206;-58
2024/03/28 09:25:56;;;;;;;0.60;0.43;;;;;;;13.68;62.09;95591.13;6301217;28;20186;-59
2024/03/28 09:28:58;;;;;;;0.40;0.30;;;;;;;13.74;67.34;95586.41;6299345;28;20248;-59
2024/03/28 09:31:59;;;;;;;0.23;0.23;;;;;;;13.58;63.42;95582.63;6297434;28;20202;-59
2024/03/28 09:35:00;;;;;;;0.90;0.50;;;;;;;13.51;64.56;95576.94;6297165;28;20194;-58
2024/03/28 09:38:02;;;;;;;1.03;0.57;;;;;;;13.53;64.65;95598.81;6299472;28;20194;-57
2024/03/28 09:41:14;;;;;;;0.87;0.60;;;;;;;13.68;67.04;95598.38;6296079;28;20311;-58
2024/03/28 09:44:20;;;;;;;1.20;0.40;;;;;;;13.15;64.46;95601.97;6305886;28;20201;-57
2024/03/28 09:47:23;;;;;;;0.97;0.73;;;;;;;13.47;69.59;95608.88;6297081;28;20198;-58
2024/03/28 09:50:27;;;;;;;0.50;0.50;;;;;;;13.49;63.68;95616.59;6302727;28;20581;-57
2024/03/28 09:53:29;;;;;;;1.70;0.50;;;;;;;13.47;62.44;95616.13;6296984;28;20197;-58
2024/03/28 09:56:30;;;;;;;0.50;0.40;;;;;;;13.66;66.11;95630.81;6303261;28;20191;-56
2024/03/28 09:59:32;;;;;;;0.37;0.37;;;;;;;13.43;65.20;95623.97;6302427;28;20568;-55
2024/03/28 10:02:56;;;;;;;0.40;0.40;;;;;;;13.70;60.71;95622.94;6295571;28;20182;-58
2024/03/28 10:05:57;;;;;;;0.40;0.40;;;;;;;14.01;63.20;95620.16;6293239;28;20199;-58
2024/03/28 10:09:02;;;;;;;1.97;0.53;;;;;;;14.32;60.84;95624.56;6293217;28;20194;-57
2024/03/28 10:12:13;;;;;;;1.97;0.50;;;;;;;14.45;57.98;95637.78;6300278;28;20230;-58
2024/03/28 10:15:14;;;;;;;2.80;0.40;;;;;;;14.51;59.40;95651.84;6297180;28;20206;-58
2024/03/28 10:18:16;;;;;;;1.43;0.47;;;;;;;14.81;57.52;95643.94;6292578;28;20280;-58
2024/03/28 10:21:20;;;;;;;0.50;0.50;;;;;;;15.01;57.02;95656.66;6292686;28;20199;-57
2024/03/28 10:24:21;;;;;;;0.80;0.60;;;;;;;15.17;55.11;95655.03;6299279;28;20242;-56
2024/03/28 10:27:22;;;;;;;1.87;0.50;;;;;;;15.36;54.25;95656.53;6300059;28;20202;-55
2024/03/28 10:30:25;;;;;;;1.33;0.70;;;;;;;15.67;55.08;95675.88;6293695;28;20380;-57
2024/03/28 10:33:26;;;;;;;3.13;0.80;;;;;;;15.87;49.12;95657.44;6307893;28;20666;-57
2024/03/28 10:36:27;;;;;;;2.17;0.77;;;;;;;15.99;49.52;95665.56;6305858;28;20185;-57
2024/03/28 10:39:28;;;;;;;2.80;0.90;;;;;;;16.14;50.27;95664.22;6295710;28;20198;-57
2024/03/28 10:42:29;;;;;;;2.23;0.60;;;;;;;16.19;50.32;95661.31;6293057;28;20676;-57
2024/03/28 10:45:32;;;;;;;9.73;0.83;;;;;;;16.42;49.79;95656.44;6305943;28;20898;-58
2024/03/28 10:48:35;;;;;;;3.37;0.77;;;;;;;16.37;47.72;95660.09;6292159;28;20201;-57
2024/03/28 10:51:43;;;;;;;1.00;0.60;;;;;;;16.50;43.95;95658.25;6297426;28;20195;-57
2024/03/28 10:54:47;;;;;;;0.40;0.40;;;;;;;16.49;49.11;95664.72;6292817;28;20202;-56
2024/03/28 10:57:48;;;;;;;1.03;0.50;;;;;;;16.62;44.36;95661.00;6292120;28;20178;-57
2024/03/28 11:00:51;;;;;;;1.23;0.40;;;;;;;16.85;44.38;95647.22;6291665;28;20217;-56
2024/03/28 11:03:55;;;;;;;0.93;0.70;;;;;;;16.97;40.55;95644.56;6292033;28;20610;-56
2024/03/28 11:06:57;;;;;;;0.70;0.40;;;;;;;16.72;40.66;95632.94;6292599;28;20252;-57
2024/03/28 11:09:58;;;;;;;0.97;0.50;;;;;;;16.50;39.85;95626.78;6292551;28;20190;-57
2024/03/28 11:12:59;;;;;;;1.23;0.43;;;;;;;16.45;46.21;95618.13;6293074;28;20682;-57
2024/03/28 11:16:06;;;;;;;0.83;0.50;;;;;;;16.38;43.96;95620.56;6291436;28;20198;-57
2024/03/28 11:19:08;;;;;;;0.57;0.30;;;;;;;16.43;40.53;95620.38;6280628;28;20238;-57
2024/03/28 11:22:09;;;;;;;0.20;0.20;;;;;;;16.54;37.06;95620.75;6294010;28;20193;-58
2024/03/28 11:25:26;;;;;;;0.83;0.37;;;;;;;16.25;39.37;95619.72;6309841;28;20251;-58
2024/03/28 11:28:29;;;;;;;1.50;0.40;;;;;;;16.39;39.95;95627.50;6292607;28;20663;-56
2024/03/28 11:31:30;;;;;;;0.27;0.20;;;;;;;16.64;38.49;95618.44;6299474;28;20193;-56
2024/03/28 11:34:31;;;;;;;0.87;0.50;;;;;;;16.86;34.64;95628.06;6293969;28;20202;-55
2024/03/28 11:37:32;;;;;;;0.20;0.20;;;;;;;16.72;36.03;95619.50;6291181;28;20202;-55
2024/03/28 11:40:35;;;;;;;0.27;0.27;;;;;;;16.85;36.66;95620.34;6299586;28;20213;-57
2024/03/28 11:43:36;;;;;;;1.20;0.40;;;;;;;17.05;39.44;95632.94;6294226;28;20189;-57
2024/03/28 11:46:38;;;;;;;0.30;0.20;;;;;;;17.04;34.54;95628.66;6298966;28;20200;-56
2024/03/28 11:49:39;;;;;;;0.50;0.50;;;;;;;17.03;37.66;95629.78;6293163;28;20569;-58
2024/03/28 11:52:40;;;;;;;0.20;0.20;;;;;;;17.33;36.07;95625.00;6293233;28;20192;-58
2024/03/28 11:55:45;;;;;;;2.93;0.30;;;;;;;17.32;37.16;95630.72;6303220;28;20733;-56
2024/03/28 11:58:47;;;;;;;0.30;0.30;;;;;;;17.17;35.22;95629.47;6289038;28;20214;-57
2024/03/28 12:01:49;;;;;;;0.63;0.30;;;;;;;17.27;38.57;95631.72;6296499;28;20193;-55
2024/03/28 12:04:50;;;;;;;0.30;0.30;;;;;;;17.31;37.67;95629.16;6281246;28;20198;-57
2024/03/28 12:07:51;;;;;;;0.30;0.27;;;;;;;17.27;34.43;95632.50;6302169;28;20204;-57
2024/03/28 12:11:02;;;;;;;5.00;0.40;;;;;;;17.26;32.57;95625.56;6277522;28;20286;-56
2024/03/28 12:14:04;;;;;;;0.20;0.20;;;;;;;17.29;33.91;95613.34;6290195;28;20183;-54
2024/03/28 12:17:05;;;;;;;0.20;0.20;;;;;;;17.40;34.75;95598.31;6290592;28;20207;-57
2024/03/28 12:20:09;;;;;;;1.13;0.33;;;;;;;17.45;34.30;95578.47;6297433;28;20275;-54
2024/03/28 12:23:12;;;;;;;0.97;0.30;;;;;;;17.50;33.92;95599.78;6273905;28;20621;-55
2024/03/28 12:26:23;;;;;;;1.20;0.40;;;;;;;17.44;36.10;95596.53;6289628;28;20195;-57
2024/03/28 12:29:24;;;;;;;0.30;0.30;;;;;;;17.46;35.57;95590.81;6289909;28;20278;-55
2024/03/28 12:32:28;;;;;;;0.27;0.20;;;;;;;17.59;32.87;95597.75;6292258;28;20182;-55
2024/03/28 12:35:33;;;;;;;1.40;0.30;;;;;;;17.45;32.74;95602.69;6291510;28;20661;-54
2024/03/28 12:38:34;;;;;;;0.47;0.33;;;;;;;17.51;31.92;95596.75;6277275;28;20202;-57
2024/03/28 12:41:37;;;;;;;0.57;0.20;;;;;;;17.15;34.64;95602.91;6289619;28;20198;-54
2024/03/28 12:44:39;;;;;;;0.30;0.30;;;;;;;17.12;37.81;95606.25;6289234;28;20190;-53
2024/03/28 12:47:40;;;;;;;0.63;0.20;;;;;;;17.14;36.61;95604.03;6290506;28;20190;-56
2024/03/28 12:50:45;;;;;;;0.30;0.30;;;;;;;17.25;32.70;95604.38;6300871;28;20182;-55
2024/03/28 12:53:46;;;;;;;0.80;0.30;;;;;;;17.29;33.69;95591.81;6297999;28;20298;-54
2024/03/28 12:56:47;;;;;;;2.53;0.27;;;;;;;17.35;34.89;95589.69;6308823;28;20723;-56
2024/03/28 12:59:48;;;;;;;0.37;0.30;;;;;;;17.49;33.74;95599.00;6296404;28;20709;-53
2024/03/28 13:02:50;;;;;;;0.87;0.40;;;;;;;17.56;32.52;95579.59;6293566;28;20206;-55
2024/03/28 13:05:55;;;;;;;0.93;0.30;;;;;;;17.63;33.24;95592.47;6297670;28;20558;-56
2024/03/28 13:08:56;;;;;;;0.60;0.30;;;;;;;17.58;35.97;95612.31;6289601;28;20202;-55
2024/03/28 13:11:57;;;;;;;0.40;0.30;;;;;;;17.35;37.55;95616.59;6298067;28;20272;-54
2024/03/28 13:14:58;;;;;;;0.77;0.30;;;;;;;17.22;36.67;95626.56;6300968;28;20200;-58
2024/03/28 13:17:59;;;;;;;0.50;0.30;;;;;;;17.01;34.54;95624.72;6297326;28;20226;-55
2024/03/28 13:21:00;;;;;;;0.30;0.30;;;;;;;16.94;37.49;95631.75;6294298;28;20205;-54
2024/03/28 13:24:01;;;;;;;0.20;0.20;;;;;;;16.99;37.80;95626.97;6273119;28;20244;-54
2024/03/28 13:27:03;;;;;;;0.40;0.37;;;;;;;16.91;35.99;95638.59;6290972;28;20205;-55
2024/03/28 13:30:06;;;;;;;0.20;0.20;;;;;;;16.83;35.72;95647.53;6291802;28;20198;-53
2024/03/28 13:33:07;;;;;;;0.40;0.40;;;;;;;16.69;38.40;95649.69;6294813;28;20213;-55
2024/03/28 13:36:09;;;;;;;0.73;0.47;;;;;;;16.59;37.50;95648.19;6290070;28;20182;-55
2024/03/28 13:39:10;;;;;;;1.03;0.40;;;;;;;16.63;39.88;95641.06;6293657;28;20213;-55
2024/03/28 13:42:11;;;;;;;1.07;0.43;;;;;;;16.49;38.96;95637.84;6294170;28;20214;-56
2024/03/28 13:45:12;;;;;;;1.13;0.50;;;;;;;16.46;39.90;95623.19;6296958;28;20183;-56
2024/03/28 13:48:19;;;;;;;1.03;0.20;;;;;;;16.40;38.75;95610.25;6293523;28;20192;-56
2024/03/28 13:51:20;;;;;;;0.50;0.30;;;;;;;16.45;38.46;95610.88;6291374;28;20199;-56
2024/03/28 13:54:21;;;;;;;0.30;0.30;;;;;;;16.50;39.57;95610.66;6297978;28;20627;-53
2024/03/28 13:57:22;;;;;;;0.40;0.40;;;;;;;16.61;37.76;95607.56;6293136;28;20197;-56
2024/03/28 14:00:23;;;;;;;0.40;0.40;;;;;;;16.67;38.96;95608.94;6294139;28;20471;-54
2024/03/28 14:03:24;;;;;;;0.50;0.50;;;;;;;16.71;36.95;95620.59;6293430;28;20301;-54
2024/03/28 14:06:25;;;;;;;0.30;0.30;;;;;;;16.57;37.25;95626.25;6307029;28;20194;-54
2024/03/28 14:09:26;;;;;;;1.37;0.30;;;;;;;16.45;39.33;95608.19;6298290;28;20190;-56
2024/03/28 14:12:28;;;;;;;0.40;0.40;;;;;;;16.05;37.04;95554.13;6291317;28;20725;-56
2024/03/28 14:15:29;;;;;;;0.43;0.30;;;;;;;16.30;39.24;95627.56;6293025;28;20249;-56
2024/03/28 14:18:30;;;;;;;0.63;0.50;;;;;;;16.20;41.29;95647.56;6292700;28;20624;-57
2024/03/28 14:21:31;;;;;;;1.70;0.30;;;;;;;16.12;40.59;95653.81;6298527;28;20194;-56
2024/03/28 14:24:33;;;;;;;1.83;0.70;;;;;;;15.80;40.90;95649.09;6292258;28;20198;-53